Sara Regina — ERYP — position and weather

sailwx.info

Track history (hours):
 
Tides and Currents Weather Stations Pressure Air Temp Water Temp Dewpoint Dewpoint Depression Visibility Wind Speed Wind Dir Waves Ship Positions

Sara Regina

Last reported at 2018-Feb-17 20:01 UTC. Time now 2018-Feb-17 20:12 UTC.
Position N 25°38' W 079°58'.

Length 91 m; draft 3.9 m.

Type: Cargo ship. MMSI: 214182516.

Date/timePositionNaut miles runAvg speedWind from/ knotsBaromVisibWave heightAir tempDewpointWater temp
2018-Feb-17 20:01N 25°38' W 079°58'712.6
2018-Feb-17 19:30N 25°31' W 079°56'612.8
2018-Feb-17 19:00N 25°26' W 079°53'  
2018-Feb-12 06:11N 25°29' W 079°39'2 9.2
2018-Feb-12 06:01N 25°30' W 079°40'5 9.4
2018-Feb-12 05:30N 25°34' W 079°44'5 9.3
2018-Feb-12 05:01N 25°37' W 079°47'5 9.2
2018-Feb-12 04:30N 25°40' W 079°51'5 9.2
2018-Feb-12 04:01N 25°42' W 079°55'5 9.3
2018-Feb-12 03:31N 25°44' W 080°00'4 8.6
2018-Feb-12 03:00N 25°46' W 080°04'5 9.0
2018-Feb-12 02:30N 25°46' W 080°09'2 3.0
2018-Feb-12 02:00N 25°46' W 080°11'1 2.2
2018-Feb-12 01:30N 25°47' W 080°12'1 2.6
2018-Feb-12 01:01N 25°47' W 080°14'1 2.4
2018-Feb-12 00:29N 25°48' W 080°15'0 0.0
2018-Feb-11 23:59N 25°48' W 080°15'0 0.0
2018-Feb-11 23:26N 25°48' W 080°15'0 0.0
2018-Feb-11 22:53N 25°48' W 080°15'0 0.0
2018-Feb-11 22:23N 25°48' W 080°15'0 0.0
2018-Feb-11 21:56N 25°48' W 080°15'0 0.0
2018-Feb-11 21:29N 25°48' W 080°15'0 0.0
2018-Feb-11 20:59N 25°48' W 080°15'0 0.0
2018-Feb-11 20:29N 25°48' W 080°15'0 0.0
2018-Feb-11 19:59N 25°48' W 080°15'0 0.0
2018-Feb-11 19:26N 25°48' W 080°15'0 0.0
2018-Feb-11 18:59N 25°48' W 080°15'0 0.0
2018-Feb-11 18:23N 25°48' W 080°15'0 0.0
2018-Feb-11 17:59N 25°48' W 080°15'0 0.0
2018-Feb-11 17:26N 25°48' W 080°15'0 0.0
2018-Feb-11 16:59N 25°48' W 080°15'0 0.0
2018-Feb-11 16:29N 25°48' W 080°15'0 0.0
2018-Feb-11 15:56N 25°48' W 080°15'0 0.0
2018-Feb-11 15:29N 25°48' W 080°15'0 0.0
2018-Feb-11 14:59N 25°48' W 080°15'0 0.0
2018-Feb-11 14:26N 25°48' W 080°15'0 0.0
2018-Feb-11 13:59N 25°48' W 080°15'0 0.0
2018-Feb-11 13:29N 25°48' W 080°15'0 0.0
2018-Feb-11 12:59N 25°48' W 080°15'0 0.0
2018-Feb-11 12:29N 25°48' W 080°15'0 0.0
2018-Feb-11 11:59N 25°48' W 080°15'0 0.4
2018-Feb-11 11:31N 25°48' W 080°15'1 2.5
2018-Feb-11 11:01N 25°47' W 080°13'1 2.9
2018-Feb-11 10:31N 25°46' W 080°12'1 2.7
2018-Feb-11 10:01N 25°46' W 080°10'4 7.9
2018-Feb-11 09:31N 25°46' W 080°06'1 2.1
2018-Feb-11 09:00N 25°46' W 080°05'1 1.8
2018-Feb-11 08:31N 25°46' W 080°04'5 9.9
2018-Feb-11 08:01N 25°42' W 080°02'510.4
2018-Feb-11 07:31N 25°37' W 079°59'611.1
2018-Feb-11 07:00N 25°32' W 079°56'511.2
2018-Feb-11 06:31N 25°27' W 079°54'611.1
2018-Feb-11 06:00N 25°22' W 079°52'  
Track history (hours):
 
Tides and Currents Weather Stations Pressure Air Temp Water Temp Dewpoint Dewpoint Depression Visibility Wind Speed Wind Dir Waves Ship Positions

Sara Regina

Last reported at 2018-Feb-17 20:01 UTC. Time now 2018-Feb-17 20:12 UTC.
Position N 25°38' W 079°58'.

Length 91 m; draft 3.9 m.

Type: Cargo ship. MMSI: 214182516.

Date/timePositionNaut miles runAvg speedWind from/ knotsBaromVisibWave heightAir tempDewpointWater temp
2018-Feb-17 20:01N 25°38' W 079°58'712.6
2018-Feb-17 19:30N 25°31' W 079°56'612.8
2018-Feb-17 19:00N 25°26' W 079°53'  
2018-Feb-12 06:11N 25°29' W 079°39'2 9.2
2018-Feb-12 06:01N 25°30' W 079°40'5 9.4
2018-Feb-12 05:30N 25°34' W 079°44'5 9.3
2018-Feb-12 05:01N 25°37' W 079°47'5 9.2
2018-Feb-12 04:30N 25°40' W 079°51'5 9.2
2018-Feb-12 04:01N 25°42' W 079°55'5 9.3
2018-Feb-12 03:31N 25°44' W 080°00'4 8.6
2018-Feb-12 03:00N 25°46' W 080°04'5 9.0
2018-Feb-12 02:30N 25°46' W 080°09'2 3.0
2018-Feb-12 02:00N 25°46' W 080°11'1 2.2
2018-Feb-12 01:30N 25°47' W 080°12'1 2.6
2018-Feb-12 01:01N 25°47' W 080°14'1 2.4
2018-Feb-12 00:29N 25°48' W 080°15'0 0.0
2018-Feb-11 23:59N 25°48' W 080°15'0 0.0
2018-Feb-11 23:26N 25°48' W 080°15'0 0.0
2018-Feb-11 22:53N 25°48' W 080°15'0 0.0
2018-Feb-11 22:23N 25°48' W 080°15'0 0.0
2018-Feb-11 21:56N 25°48' W 080°15'0 0.0
2018-Feb-11 21:29N 25°48' W 080°15'0 0.0
2018-Feb-11 20:59N 25°48' W 080°15'0 0.0
2018-Feb-11 20:29N 25°48' W 080°15'0 0.0
2018-Feb-11 19:59N 25°48' W 080°15'0 0.0
2018-Feb-11 19:26N 25°48' W 080°15'0 0.0
2018-Feb-11 18:59N 25°48' W 080°15'0 0.0
2018-Feb-11 18:23N 25°48' W 080°15'0 0.0
2018-Feb-11 17:59N 25°48' W 080°15'0 0.0
2018-Feb-11 17:26N 25°48' W 080°15'0 0.0
2018-Feb-11 16:59N 25°48' W 080°15'0 0.0
2018-Feb-11 16:29N 25°48' W 080°15'0 0.0
2018-Feb-11 15:56N 25°48' W 080°15'0 0.0
2018-Feb-11 15:29N 25°48' W 080°15'0 0.0
2018-Feb-11 14:59N 25°48' W 080°15'0 0.0
2018-Feb-11 14:26N 25°48' W 080°15'0 0.0
2018-Feb-11 13:59N 25°48' W 080°15'0 0.0
2018-Feb-11 13:29N 25°48' W 080°15'0 0.0
2018-Feb-11 12:59N 25°48' W 080°15'0 0.0
2018-Feb-11 12:29N 25°48' W 080°15'0 0.0
2018-Feb-11 11:59N 25°48' W 080°15'0 0.4
2018-Feb-11 11:31N 25°48' W 080°15'1 2.5
2018-Feb-11 11:01N 25°47' W 080°13'1 2.9
2018-Feb-11 10:31N 25°46' W 080°12'1 2.7
2018-Feb-11 10:01N 25°46' W 080°10'4 7.9
2018-Feb-11 09:31N 25°46' W 080°06'1 2.1
2018-Feb-11 09:00N 25°46' W 080°05'1 1.8
2018-Feb-11 08:31N 25°46' W 080°04'5 9.9
2018-Feb-11 08:01N 25°42' W 080°02'510.4
2018-Feb-11 07:31N 25°37' W 079°59'611.1
2018-Feb-11 07:00N 25°32' W 079°56'511.2
2018-Feb-11 06:31N 25°27' W 079°54'611.1
2018-Feb-11 06:00N 25°22' W 079°52'  

Dump ship's entire track history